Time;durP1;ratioP1;P1;durP2;ratioP2;P2;SDS_P1;SDS_P2;PMS_P1;PMS_P2;Temp;Humidity;BMP_temperature;BMP_pressure;BME280_temperature;BME280_humidity;BME280_pressure;Samples;Min_cycle;Max_cycle;Signal;HPM_P1;HPM_P2
2023/10/14 00:02:05;;;;;;;0.40;0.40;;;14.00;99.90;;;;;;5046785;28;20532;-72
2023/10/14 00:04:31;;;;;;;0.30;0.30;;;14.00;99.90;;;;;;5056051;28;20399;-71
2023/10/14 00:07:05;;;;;;;0.38;0.38;;;14.00;99.90;;;;;;5055778;28;20033;-72
2023/10/14 00:09:35;;;;;;;0.40;0.40;;;13.90;99.90;;;;;;5054920;28;20435;-72
2023/10/14 00:12:04;;;;;;;0.35;0.35;;;13.90;99.90;;;;;;5063209;28;20071;-72
2023/10/14 00:14:30;;;;;;;0.40;0.40;;;13.90;99.90;;;;;;5053869;28;20489;-72
2023/10/14 00:16:56;;;;;;;0.32;0.32;;;13.80;99.90;;;;;;5061674;28;20041;-72
2023/10/14 00:19:23;;;;;;;0.40;0.40;;;13.80;99.90;;;;;;5058401;28;20095;-72
2023/10/14 00:21:50;;;;;;;0.35;0.35;;;13.80;99.90;;;;;;5067622;28;20103;-72
2023/10/14 00:24:25;;;;;;;0.50;0.50;;;13.70;99.90;;;;;;5037225;28;20043;-72
2023/10/14 00:26:52;;;;;;;0.60;0.60;;;13.70;99.90;;;;;;5056745;28;20033;-72
2023/10/14 00:29:20;;;;;;;0.50;0.50;;;13.70;99.90;;;;;;5063475;28;20565;-72
2023/10/14 00:31:51;;;;;;;0.40;0.40;;;13.60;99.90;;;;;;5057600;28;20174;-72
2023/10/14 00:34:22;;;;;;;0.40;0.40;;;13.60;99.90;;;;;;5073123;28;20051;-75
2023/10/14 00:36:49;;;;;;;0.40;0.40;;;13.60;99.90;;;;;;5032642;28;20043;-72
2023/10/14 00:39:22;;;;;;;0.30;0.30;;;13.60;99.90;;;;;;5057751;28;20198;-73
2023/10/14 00:41:50;;;;;;;0.40;0.40;;;13.60;99.90;;;;;;5060074;28;20048;-72
2023/10/14 00:44:18;;;;;;;0.50;0.50;;;13.60;99.90;;;;;;5060112;28;20037;-73
2023/10/14 00:46:50;;;;;;;0.40;0.40;;;13.50;99.90;;;;;;5051124;28;20033;-73
2023/10/14 00:49:17;;;;;;;0.30;0.30;;;13.50;99.90;;;;;;5056794;28;20093;-73
2023/10/14 00:51:49;;;;;;;0.30;0.30;;;13.40;99.90;;;;;;5067262;28;20108;-74
2023/10/14 00:57:00;;;;;;;0.40;0.40;;;13.40;99.90;;;;;;5061459;28;20506;-73
2023/10/14 00:59:28;;;;;;;0.47;0.47;;;13.30;99.90;;;;;;5065480;28;20040;-72
2023/10/14 01:01:58;;;;;;;0.30;0.30;;;13.20;99.90;;;;;;5050243;28;20482;-74
2023/10/14 01:04:34;;;;;;;0.40;0.40;;;13.20;99.90;;;;;;5044986;28;20504;-74
2023/10/14 01:07:04;;;;;;;0.40;0.40;;;13.10;99.90;;;;;;5060519;28;20115;-74
2023/10/14 01:09:54;;;;;;;0.30;0.30;;;13.10;99.90;;;;;;5039920;28;20450;-74
2023/10/14 01:12:23;;;;;;;0.30;0.30;;;13.10;99.90;;;;;;5060298;28;20044;-73
2023/10/14 01:14:53;;;;;;;0.40;0.40;;;13.10;99.90;;;;;;5057178;28;20451;-73
2023/10/14 01:17:29;;;;;;;0.38;0.38;;;13.00;99.90;;;;;;5054922;28;20409;-73
2023/10/14 01:22:40;;;;;;;0.40;0.40;;;13.00;99.90;;;;;;5060008;28;20131;-74
2023/10/14 01:25:15;;;;;;;0.40;0.40;;;12.90;99.90;;;;;;5046223;28;20037;-74
2023/10/14 01:27:44;;;;;;;0.75;0.75;;;12.90;99.90;;;;;;5040801;28;20036;-74
2023/10/14 01:30:26;;;;;;;0.50;0.50;;;12.90;99.90;;;;;;5053722;28;20087;-74
2023/10/14 01:32:56;;;;;;;0.60;0.60;;;12.90;99.90;;;;;;5058412;28;20029;-74
2023/10/14 01:37:52;;;;;;;0.30;0.30;;;12.70;99.90;;;;;;5065323;28;20084;-74
2023/10/14 01:42:48;;;;;;;0.30;0.30;;;12.60;99.90;;;;;;5058060;28;20082;-74
2023/10/14 01:45:20;;;;;;;0.40;0.40;;;12.60;99.90;;;;;;5051561;28;20032;-74
2023/10/14 01:47:53;;;;;;;0.35;0.35;;;12.50;99.90;;;;;;5059485;28;20506;-74
2023/10/14 01:50:19;;;;;;;0.30;0.30;;;12.50;99.90;;;;;;5067948;28;20050;-74
2023/10/14 01:52:46;;;;;;;0.40;0.40;;;12.40;99.90;;;;;;5040521;28;20059;-74
2023/10/14 01:55:12;;;;;;;0.20;0.20;;;12.30;99.90;;;;;;5056795;28;20679;-74
2023/10/14 01:57:42;;;;;;;0.38;0.38;;;12.30;99.90;;;;;;5049622;28;20033;-74
2023/10/14 02:00:24;;;;;;;0.40;0.40;;;12.20;99.90;;;;;;5056157;28;20068;-74
2023/10/14 02:02:59;;;;;;;0.30;0.30;;;12.20;99.90;;;;;;5050817;28;20049;-74
2023/10/14 02:05:27;;;;;;;0.40;0.40;;;12.10;99.90;;;;;;5058585;28;20036;-74
2023/10/14 02:07:52;;;;;;;0.30;0.30;;;12.10;99.90;;;;;;5038439;28;20078;-74
2023/10/14 02:10:18;;;;;;;0.30;0.30;;;12.10;99.90;;;;;;5056759;28;20429;-74
2023/10/14 02:12:44;;;;;;;0.60;0.60;;;12.00;99.90;;;;;;5049680;28;20402;-74
2023/10/14 02:15:10;;;;;;;0.40;0.40;;;11.90;99.90;;;;;;5037743;28;20091;-73
2023/10/14 02:17:36;;;;;;;0.40;0.40;;;11.90;99.90;;;;;;5060403;28;20055;-74
2023/10/14 02:20:20;;;;;;;0.40;0.40;;;11.90;99.90;;;;;;5046494;28;20040;-72
2023/10/14 02:22:49;;;;;;;0.30;0.30;;;11.80;99.90;;;;;;5057839;28;20037;-74
2023/10/14 02:25:16;;;;;;;0.30;0.30;;;11.80;99.90;;;;;;5058195;28;20139;-74
2023/10/14 02:27:43;;;;;;;0.40;0.40;;;11.80;99.90;;;;;;5034573;28;20044;-72
2023/10/14 02:30:10;;;;;;;0.40;0.40;;;11.70;99.90;;;;;;5060287;28;20032;-73
2023/10/14 02:32:36;;;;;;;0.38;0.38;;;11.70;99.90;;;;;;5058694;28;20040;-74
2023/10/14 02:35:01;;;;;;;0.50;0.50;;;11.60;99.90;;;;;;5056542;28;20041;-73
2023/10/14 02:37:27;;;;;;;0.30;0.30;;;11.60;99.90;;;;;;5032106;28;20473;-71
2023/10/14 02:39:53;;;;;;;0.40;0.40;;;11.50;99.90;;;;;;5049592;28;20068;-74
2023/10/14 02:42:19;;;;;;;0.30;0.30;;;11.50;99.90;;;;;;5061490;28;20084;-73
2023/10/14 02:44:46;;;;;;;0.30;0.30;;;11.40;99.90;;;;;;5048672;28;20045;-73
2023/10/14 02:47:13;;;;;;;0.50;0.50;;;11.40;99.90;;;;;;5042505;28;20040;-73
2023/10/14 02:49:40;;;;;;;0.40;0.40;;;11.30;99.90;;;;;;5062290;28;20501;-72
2023/10/14 02:52:11;;;;;;;0.40;0.40;;;11.20;99.90;;;;;;5059009;28;20045;-73
2023/10/14 02:54:44;;;;;;;0.40;0.40;;;11.30;99.90;;;;;;5058055;28;20568;-73
2023/10/14 02:57:13;;;;;;;0.35;0.35;;;11.20;99.90;;;;;;5061371;28;20041;-73
2023/10/14 03:07:28;;;;;;;0.30;0.30;;;11.00;99.90;;;;;;5060383;28;20454;-73
2023/10/14 03:09:58;;;;;;;0.30;0.30;;;10.90;99.90;;;;;;5061460;28;20130;-73
2023/10/14 03:12:25;;;;;;;0.50;0.50;;;10.90;99.90;;;;;;5059273;28;20115;-74
2023/10/14 03:14:54;;;;;;;0.30;0.30;;;10.80;99.90;;;;;;5044561;28;20041;-73
2023/10/14 03:17:25;;;;;;;0.30;0.30;;;10.80;99.90;;;;;;5056055;28;20096;-72
2023/10/14 03:19:53;;;;;;;0.35;0.35;;;10.80;99.90;;;;;;5056046;28;20036;-73
2023/10/14 03:22:27;;;;;;;0.40;0.40;;;10.70;99.90;;;;;;5054008;28;20472;-73
2023/10/14 03:25:04;;;;;;;0.35;0.35;;;10.70;99.90;;;;;;5038290;28;20218;-73
2023/10/14 03:27:32;;;;;;;0.40;0.40;;;10.60;99.90;;;;;;5043673;28;20055;-73
2023/10/14 03:29:59;;;;;;;0.38;0.38;;;10.60;99.90;;;;;;5060591;28;20037;-73
2023/10/14 03:32:32;;;;;;;0.30;0.30;;;10.60;99.90;;;;;;5062444;28;20037;-73
2023/10/14 03:35:03;;;;;;;0.40;0.40;;;10.50;99.90;;;;;;5062528;28;20041;-74
2023/10/14 03:37:35;;;;;;;0.32;0.32;;;10.50;99.90;;;;;;5055100;28;20665;-73
2023/10/14 03:42:53;;;;;;;0.68;0.68;;;10.40;99.90;;;;;;5066434;28;20059;-73
2023/10/14 03:45:22;;;;;;;0.30;0.30;;;10.40;99.90;;;;;;5056497;28;20150;-73
2023/10/14 03:47:52;;;;;;;0.25;0.25;;;10.30;99.90;;;;;;5056948;28;20037;-73
2023/10/14 03:50:25;;;;;;;0.30;0.30;;;10.30;99.90;;;;;;5058569;28;20053;-74
2023/10/14 03:52:55;;;;;;;0.30;0.30;;;10.20;99.90;;;;;;5045307;28;20048;-73
2023/10/14 03:55:26;;;;;;;1.40;1.30;;;10.20;99.90;;;;;;5058158;28;20111;-73
2023/10/14 03:57:58;;;;;;;0.30;0.30;;;10.20;99.90;;;;;;5054060;28;20406;-72
2023/10/14 04:00:36;;;;;;;0.30;0.30;;;10.10;99.90;;;;;;5062228;28;20048;-73
2023/10/14 04:03:11;;;;;;;0.30;0.30;;;10.10;99.90;;;;;;5057404;28;20071;-73
2023/10/14 04:05:52;;;;;;;0.40;0.40;;;10.10;99.90;;;;;;5062303;28;20429;-73
2023/10/14 04:08:30;;;;;;;0.43;0.43;;;10.00;99.90;;;;;;5042701;28;20032;-73
2023/10/14 04:11:13;;;;;;;0.30;0.30;;;10.00;99.90;;;;;;5040098;28;20557;-72
2023/10/14 04:13:42;;;;;;;0.40;0.40;;;10.00;99.90;;;;;;5064720;28;20115;-73
2023/10/14 04:16:11;;;;;;;0.35;0.35;;;9.90;99.90;;;;;;5055723;28;20049;-73
2023/10/14 04:18:37;;;;;;;0.40;0.40;;;9.90;99.90;;;;;;5051647;28;20071;-73
2023/10/14 04:21:19;;;;;;;1.35;0.75;;;9.90;99.90;;;;;;5044202;28;20040;-74
2023/10/14 04:24:08;;;;;;;0.20;0.20;;;9.80;99.90;;;;;;5057745;28;20098;-71
2023/10/14 04:26:35;;;;;;;0.30;0.30;;;9.70;99.90;;;;;;5061698;28;20068;-73
2023/10/14 04:29:03;;;;;;;0.35;0.35;;;9.70;99.90;;;;;;5053324;28;20390;-74
2023/10/14 04:31:40;;;;;;;0.30;0.30;;;9.70;99.90;;;;;;5040197;28;20043;-73
2023/10/14 04:34:08;;;;;;;0.52;0.52;;;9.70;99.90;;;;;;5058319;28;20055;-73
2023/10/14 04:36:37;;;;;;;0.40;0.40;;;9.70;99.90;;;;;;5036804;28;20059;-73
2023/10/14 04:39:15;;;;;;;0.30;0.30;;;9.70;99.90;;;;;;5044490;28;20039;-73
2023/10/14 04:44:37;;;;;;;0.40;0.40;;;9.60;99.90;;;;;;5051285;28;20107;-73
2023/10/14 04:47:04;;;;;;;0.40;0.40;;;9.60;99.90;;;;;;5048903;28;20043;-73
2023/10/14 04:49:37;;;;;;;0.40;0.40;;;9.60;99.90;;;;;;5039444;28;20470;-73
2023/10/14 04:52:05;;;;;;;0.30;0.30;;;9.50;99.90;;;;;;5045459;28;20401;-73
2023/10/14 04:54:34;;;;;;;0.40;0.40;;;9.50;99.90;;;;;;5054471;28;20123;-73
2023/10/14 04:59:53;;;;;;;0.85;0.85;;;9.50;99.90;;;;;;5057388;28;20059;-73
2023/10/14 05:02:24;;;;;;;0.30;0.30;;;9.50;99.90;;;;;;5052015;28;20067;-73
2023/10/14 05:04:51;;;;;;;0.70;0.70;;;9.40;99.90;;;;;;5038619;28;20047;-74
2023/10/14 05:07:18;;;;;;;0.90;0.60;;;9.50;99.90;;;;;;5033849;28;20507;-73
2023/10/14 05:09:56;;;;;;;0.40;0.40;;;9.40;99.90;;;;;;5018034;28;20029;-73
2023/10/14 05:12:25;;;;;;;0.38;0.38;;;9.40;99.90;;;;;;5028957;28;20128;-71
2023/10/14 05:14:52;;;;;;;0.50;0.50;;;9.40;99.90;;;;;;5038079;28;20120;-73
2023/10/14 05:17:25;;;;;;;0.30;0.30;;;9.30;99.90;;;;;;5019344;28;20478;-73
2023/10/14 05:19:57;;;;;;;0.40;0.40;;;9.40;99.90;;;;;;5026496;28;20449;-72
2023/10/14 05:22:37;;;;;;;0.40;0.40;;;9.40;99.90;;;;;;5020194;28;20056;-73
2023/10/14 05:25:08;;;;;;;0.50;0.50;;;9.30;99.90;;;;;;5021184;28;20104;-73
2023/10/14 05:27:46;;;;;;;0.40;0.40;;;9.30;99.90;;;;;;5020187;28;20033;-72
2023/10/14 05:30:15;;;;;;;0.40;0.40;;;9.30;99.90;;;;;;5037315;28;20042;-73
2023/10/14 05:32:43;;;;;;;0.30;0.30;;;9.30;99.90;;;;;;5029222;28;21464;-73
2023/10/14 05:35:10;;;;;;;0.30;0.30;;;9.20;99.90;;;;;;5023441;28;20029;-73
2023/10/14 05:37:41;;;;;;;0.30;0.30;;;9.20;99.90;;;;;;5040706;28;20033;-73
2023/10/14 05:40:16;;;;;;;0.30;0.30;;;9.20;99.90;;;;;;5021732;28;20032;-73
2023/10/14 05:42:45;;;;;;;0.30;0.30;;;9.20;99.90;;;;;;5003274;28;21255;-71
2023/10/14 05:45:11;;;;;;;0.75;0.40;;;9.20;99.90;;;;;;5019634;28;20124;-73
2023/10/14 05:47:39;;;;;;;0.40;0.40;;;9.10;99.90;;;;;;5022654;28;20144;-70
2023/10/14 05:50:08;;;;;;;0.35;0.30;;;9.10;99.90;;;;;;5011568;28;20107;-73
2023/10/14 05:52:34;;;;;;;0.40;0.40;;;9.10;99.90;;;;;;5030814;28;20098;-73
2023/10/14 05:55:05;;;;;;;0.40;0.40;;;9.10;99.90;;;;;;5009225;28;20061;-71
2023/10/14 05:57:34;;;;;;;0.40;0.40;;;9.10;99.90;;;;;;5021351;28;20049;-73
2023/10/14 06:00:01;;;;;;;0.50;0.50;;;9.10;99.90;;;;;;5005250;28;20049;-71
2023/10/14 06:02:27;;;;;;;0.40;0.40;;;9.00;99.90;;;;;;5025757;28;20060;-72
2023/10/14 06:04:53;;;;;;;0.40;0.40;;;9.00;99.90;;;;;;5036532;28;20844;-73
2023/10/14 06:07:19;;;;;;;0.40;0.40;;;9.00;99.90;;;;;;5016835;28;20072;-73
2023/10/14 06:09:47;;;;;;;0.30;0.30;;;9.00;99.90;;;;;;5041270;28;22070;-72
2023/10/14 06:12:13;;;;;;;0.30;0.30;;;9.10;99.90;;;;;;5038637;28;20494;-72
2023/10/14 06:14:44;;;;;;;0.32;0.32;;;9.00;99.90;;;;;;5034188;28;20044;-72
2023/10/14 06:17:11;;;;;;;0.40;0.40;;;9.00;99.90;;;;;;5035791;28;20044;-72
2023/10/14 06:19:37;;;;;;;0.40;0.40;;;9.00;99.90;;;;;;5023675;28;20098;-73
2023/10/14 06:22:03;;;;;;;0.30;0.30;;;9.00;99.90;;;;;;5024133;28;20844;-73
2023/10/14 06:24:29;;;;;;;0.30;0.30;;;9.00;99.90;;;;;;5038340;28;20620;-73
2023/10/14 06:27:08;;;;;;;2.67;0.75;;;9.10;99.90;;;;;;5035371;28;20052;-73
2023/10/14 06:29:37;;;;;;;0.30;0.30;;;9.00;99.90;;;;;;5036671;28;20044;-73
2023/10/14 06:32:04;;;;;;;0.52;0.52;;;9.10;99.90;;;;;;5033034;28;20087;-73
2023/10/14 06:34:34;;;;;;;0.63;0.63;;;9.10;99.90;;;;;;5042180;28;20105;-72
2023/10/14 06:37:02;;;;;;;0.40;0.40;;;9.10;99.90;;;;;;5048838;28;20540;-73
2023/10/14 06:39:28;;;;;;;0.40;0.40;;;9.20;99.90;;;;;;5052323;28;20044;-73
2023/10/14 06:41:55;;;;;;;0.40;0.40;;;9.20;99.90;;;;;;5033245;28;20045;-73
2023/10/14 06:44:27;;;;;;;0.30;0.30;;;9.20;99.90;;;;;;5054399;28;20037;-72
2023/10/14 06:46:56;;;;;;;0.30;0.30;;;9.20;99.90;;;;;;5055180;28;20044;-73
2023/10/14 06:49:36;;;;;;;0.30;0.30;;;9.30;99.90;;;;;;5054091;28;20045;-72
2023/10/14 06:52:04;;;;;;;0.30;0.30;;;9.30;99.90;;;;;;5049891;28;20045;-72
2023/10/14 06:54:30;;;;;;;0.50;0.50;;;9.30;99.90;;;;;;5051255;28;20135;-73
2023/10/14 06:56:56;;;;;;;0.43;0.43;;;9.40;99.90;;;;;;5048584;28;20068;-72
2023/10/14 06:59:22;;;;;;;0.30;0.30;;;9.40;99.90;;;;;;5042261;28;20135;-73
2023/10/14 07:01:48;;;;;;;0.32;0.32;;;9.40;99.90;;;;;;5016904;28;20053;-73
2023/10/14 07:04:16;;;;;;;0.40;0.40;;;9.50;99.90;;;;;;5040010;28;20608;-72
2023/10/14 07:06:47;;;;;;;0.40;0.40;;;9.50;99.90;;;;;;5024200;28;20527;-73
2023/10/14 07:09:17;;;;;;;0.40;0.40;;;9.50;99.90;;;;;;5034445;28;20073;-73
2023/10/14 07:11:46;;;;;;;0.30;0.30;;;9.60;99.90;;;;;;5035651;28;20068;-73
2023/10/14 07:14:12;;;;;;;0.40;0.40;;;9.60;99.90;;;;;;5017091;28;20077;-71
2023/10/14 07:16:38;;;;;;;0.40;0.40;;;9.70;99.90;;;;;;5025411;28;20049;-72
2023/10/14 07:19:04;;;;;;;0.30;0.30;;;9.70;99.90;;;;;;5023323;28;20045;-73
2023/10/14 07:21:30;;;;;;;0.40;0.40;;;9.70;99.90;;;;;;5035292;28;20037;-72
2023/10/14 07:23:58;;;;;;;0.30;0.30;;;9.70;99.90;;;;;;5041728;28;20041;-73
2023/10/14 07:26:29;;;;;;;0.70;0.70;;;9.70;99.90;;;;;;5019255;28;20033;-72
2023/10/14 07:28:56;;;;;;;0.40;0.40;;;9.80;99.90;;;;;;5026657;28;20282;-73
2023/10/14 07:31:25;;;;;;;0.40;0.40;;;9.80;99.90;;;;;;5039011;28;20083;-71
2023/10/14 07:33:51;;;;;;;0.38;0.38;;;9.80;99.90;;;;;;5038181;28;20407;-72
2023/10/14 07:36:18;;;;;;;0.35;0.35;;;9.80;99.90;;;;;;5044975;28;20139;-73
2023/10/14 07:38:44;;;;;;;0.40;0.40;;;9.90;99.90;;;;;;5036659;28;20115;-74
2023/10/14 07:41:11;;;;;;;2.05;0.73;;;9.90;99.90;;;;;;5042641;28;20492;-74
2023/10/14 07:43:37;;;;;;;0.40;0.40;;;9.90;99.90;;;;;;5038726;28;20091;-73
2023/10/14 07:46:06;;;;;;;0.80;0.80;;;10.10;99.90;;;;;;5023882;28;20034;-73
2023/10/14 07:48:32;;;;;;;0.32;0.32;;;10.00;99.90;;;;;;5041474;28;20037;-76
2023/10/14 07:50:58;;;;;;;0.50;0.50;;;10.10;99.90;;;;;;5015954;28;20388;-75
2023/10/14 07:53:25;;;;;;;0.40;0.40;;;10.20;99.90;;;;;;5006810;28;20036;-74
2023/10/14 07:55:56;;;;;;;0.30;0.30;;;10.20;99.90;;;;;;5008831;28;21574;-75
2023/10/14 07:58:24;;;;;;;2.15;1.25;;;10.30;99.90;;;;;;5011261;28;20044;-73
2023/10/14 08:00:52;;;;;;;0.40;0.40;;;10.30;99.90;;;;;;5024523;28;20049;-74
2023/10/14 08:03:20;;;;;;;0.40;0.40;;;10.40;99.90;;;;;;5041596;28;20173;-74
2023/10/14 08:05:54;;;;;;;0.40;0.40;;;10.40;99.90;;;;;;5028202;28;20044;-76
2023/10/14 08:08:21;;;;;;;0.82;0.55;;;10.50;99.90;;;;;;5026098;28;20040;-72
2023/10/14 08:10:50;;;;;;;0.30;0.30;;;10.50;99.90;;;;;;5041558;28;20044;-75
2023/10/14 08:13:21;;;;;;;;;;;10.60;99.90;;;;;;5041426;28;20086;-75
2023/10/14 08:15:50;;;;;;;0.30;0.30;;;10.60;99.90;;;;;;5027231;28;19921;-73
2023/10/14 08:18:17;;;;;;;0.40;0.40;;;10.70;99.90;;;;;;5044279;28;20313;-70
2023/10/14 08:20:43;;;;;;;0.30;0.30;;;10.70;99.90;;;;;;5021922;28;20045;-70
2023/10/14 08:23:10;;;;;;;0.40;0.40;;;10.80;99.90;;;;;;5020337;28;20265;-74
2023/10/14 08:25:42;;;;;;;0.75;0.75;;;10.90;99.90;;;;;;5052619;28;20040;-74
2023/10/14 08:28:08;;;;;;;0.40;0.40;;;10.90;99.90;;;;;;5057842;28;20081;-74
2023/10/14 08:30:50;;;;;;;0.30;0.30;;;10.90;99.90;;;;;;5060004;28;20513;-74
2023/10/14 08:33:21;;;;;;;0.40;0.40;;;11.00;99.90;;;;;;5033394;28;20086;-73
2023/10/14 08:35:48;;;;;;;0.50;0.50;;;11.10;99.90;;;;;;5034976;28;20037;-74
2023/10/14 08:38:16;;;;;;;0.32;0.32;;;11.10;99.90;;;;;;5053767;28;20487;-74
2023/10/14 08:40:44;;;;;;;0.40;0.40;;;11.30;99.90;;;;;;5063462;28;20125;-74
2023/10/14 08:43:19;;;;;;;1.02;1.00;;;11.40;99.90;;;;;;5039232;28;20461;-75
2023/10/14 08:45:48;;;;;;;0.30;0.30;;;11.40;99.90;;;;;;5052961;28;20033;-74
2023/10/14 08:48:16;;;;;;;0.40;0.40;;;11.50;99.90;;;;;;5052443;28;20107;-75
2023/10/14 08:50:42;;;;;;;0.40;0.40;;;11.70;99.90;;;;;;5035057;28;20383;-74
2023/10/14 08:53:15;;;;;;;0.68;0.68;;;11.80;99.90;;;;;;5062454;28;20033;-74
2023/10/14 08:55:46;;;;;;;0.30;0.30;;;11.90;99.90;;;;;;5055827;28;20057;-74
2023/10/14 08:58:15;;;;;;;0.30;0.30;;;12.10;99.90;;;;;;5020443;28;20527;-73
2023/10/14 09:00:44;;;;;;;0.40;0.40;;;12.30;99.90;;;;;;5040462;28;20056;-73
2023/10/14 09:03:10;;;;;;;;;;;12.40;99.90;;;;;;5010846;28;20686;-74
2023/10/14 09:05:40;;;;;;;0.40;0.40;;;12.50;99.90;;;;;;5012528;28;19920;-75
2023/10/14 09:08:11;;;;;;;0.30;0.30;;;12.60;99.90;;;;;;5022617;28;20399;-74
2023/10/14 09:10:39;;;;;;;0.40;0.40;;;12.80;99.90;;;;;;5040179;28;20048;-74
2023/10/14 09:13:08;;;;;;;0.30;0.30;;;12.90;99.90;;;;;;5039251;28;20080;-75
2023/10/14 09:15:52;;;;;;;0.50;0.50;;;13.10;99.90;;;;;;5015633;28;20068;-75
2023/10/14 09:18:27;;;;;;;0.50;0.50;;;13.30;99.90;;;;;;5036353;28;20040;-75
2023/10/14 09:20:54;;;;;;;0.50;0.50;;;13.40;99.90;;;;;;5021113;28;21688;-73
2023/10/14 09:23:34;;;;;;;0.73;0.73;;;13.50;99.90;;;;;;5024407;28;20118;-75
2023/10/14 09:26:03;;;;;;;0.40;0.40;;;13.70;99.90;;;;;;5026514;28;20107;-74
2023/10/14 09:28:32;;;;;;;0.30;0.30;;;13.80;99.90;;;;;;5024029;28;20049;-74
2023/10/14 09:30:59;;;;;;;0.40;0.40;;;14.00;99.90;;;;;;5021088;28;20577;-74
2023/10/14 09:33:37;;;;;;;0.30;0.30;;;14.20;99.90;;;;;;5020359;28;20045;-74
2023/10/14 09:36:05;;;;;;;;;;;14.30;99.90;;;;;;5037053;28;20056;-74
2023/10/14 09:38:34;;;;;;;0.40;0.40;;;14.30;99.90;;;;;;5031128;28;19978;-75
2023/10/14 09:41:04;;;;;;;0.32;0.32;;;14.30;99.90;;;;;;5032606;28;20111;-74
2023/10/14 09:43:34;;;;;;;0.30;0.30;;;14.40;99.90;;;;;;5027453;28;20108;-74
2023/10/14 09:46:05;;;;;;;0.40;0.40;;;14.40;99.90;;;;;;5021412;28;20037;-74
2023/10/14 09:48:32;;;;;;;0.50;0.50;;;14.20;99.90;;;;;;5020530;28;20045;-75
2023/10/14 09:51:02;;;;;;;0.30;0.30;;;14.20;99.90;;;;;;5022213;28;20449;-74
2023/10/14 09:53:32;;;;;;;0.32;0.32;;;14.20;99.90;;;;;;5011374;28;20435;-74
2023/10/14 09:56:09;;;;;;;0.30;0.30;;;14.20;99.90;;;;;;5021719;28;20048;-74
2023/10/14 09:58:42;;;;;;;0.40;0.40;;;14.40;99.90;;;;;;5022723;28;20477;-74
2023/10/14 10:01:14;;;;;;;0.40;0.40;;;14.50;99.90;;;;;;5030454;28;20168;-74
2023/10/14 10:04:02;;;;;;;0.30;0.30;;;14.60;99.90;;;;;;5040509;28;20040;-74
2023/10/14 10:06:50;;;;;;;0.32;0.32;;;14.80;99.90;;;;;;5028791;28;20048;-74
2023/10/14 10:09:25;;;;;;;0.40;0.40;;;14.80;99.90;;;;;;5040992;28;20473;-74
2023/10/14 10:11:53;;;;;;;0.50;0.50;;;15.00;99.90;;;;;;5040583;28;20051;-74
2023/10/14 10:14:26;;;;;;;0.30;0.30;;;15.20;99.90;;;;;;5025014;28;20532;-74
2023/10/14 10:16:53;;;;;;;0.30;0.30;;;15.30;99.90;;;;;;5041624;28;20179;-74
2023/10/14 10:19:21;;;;;;;0.28;0.28;;;15.30;99.90;;;;;;5024746;28;20052;-74
2023/10/14 10:22:08;;;;;;;;;;;14.90;99.90;;;;;;5057442;28;20596;-74
2023/10/14 10:24:34;;;;;;;0.45;0.45;;;14.50;99.90;;;;;;5035425;28;19920;-74
2023/10/14 10:27:03;;;;;;;0.38;0.38;;;14.20;99.90;;;;;;5053333;28;20036;-74
2023/10/14 10:29:35;;;;;;;0.32;0.32;;;14.00;99.90;;;;;;5060327;28;20032;-74
2023/10/14 10:32:08;;;;;;;0.40;0.40;;;13.90;99.90;;;;;;5061542;28;20464;-74
2023/10/14 10:34:54;;;;;;;0.40;0.40;;;14.10;99.90;;;;;;5053748;28;20044;-74
2023/10/14 10:37:21;;;;;;;0.30;0.30;;;14.20;99.90;;;;;;5068327;28;20051;-74
2023/10/14 10:39:50;;;;;;;0.30;0.30;;;14.30;99.90;;;;;;5052019;28;20059;-74
2023/10/14 10:42:16;;;;;;;0.60;0.60;;;14.30;99.90;;;;;;5066781;28;20047;-74
2023/10/14 10:44:43;;;;;;;0.52;0.50;;;14.10;99.90;;;;;;5052958;28;20044;-74
2023/10/14 10:47:12;;;;;;;0.30;0.30;;;13.80;99.90;;;;;;5062838;28;20394;-74
2023/10/14 10:49:56;;;;;;;0.30;0.30;;;13.60;99.90;;;;;;5052845;28;20044;-74
2023/10/14 10:52:24;;;;;;;0.40;0.40;;;13.30;99.90;;;;;;5048809;28;20040;-74
2023/10/14 10:54:51;;;;;;;;;;;13.10;99.90;;;;;;5040912;28;20090;-74
2023/10/14 10:57:17;;;;;;;0.38;0.38;;;12.90;99.90;;;;;;5068158;28;19927;-73
2023/10/14 10:59:43;;;;;;;0.30;0.30;;;12.90;99.90;;;;;;5040784;28;20044;-74
2023/10/14 11:02:11;;;;;;;0.40;0.40;;;12.80;99.90;;;;;;5038333;28;20052;-74
2023/10/14 11:04:45;;;;;;;0.28;0.28;;;12.70;99.90;;;;;;5039280;28;20343;-73
2023/10/14 11:07:12;;;;;;;0.30;0.30;;;12.70;99.90;;;;;;5038966;28;20081;-74
2023/10/14 11:09:41;;;;;;;0.30;0.30;;;12.60;99.90;;;;;;5025044;28;20040;-73
2023/10/14 11:12:11;;;;;;;0.50;0.50;;;12.50;99.90;;;;;;5028135;28;20130;-73
2023/10/14 11:14:40;;;;;;;0.30;0.30;;;12.30;99.90;;;;;;5038507;28;20050;-73
2023/10/14 11:17:07;;;;;;;0.85;0.75;;;12.20;99.90;;;;;;5040998;28;20048;-74
2023/10/14 11:19:33;;;;;;;0.30;0.30;;;12.20;99.90;;;;;;5040682;28;20044;-74
2023/10/14 11:22:01;;;;;;;0.30;0.30;;;12.20;99.90;;;;;;5035496;28;20697;-73
2023/10/14 11:24:27;;;;;;;;;;;12.20;99.90;;;;;;5042300;28;20052;-74
2023/10/14 11:26:55;;;;;;;0.40;0.40;;;12.40;99.90;;;;;;5028059;28;19920;-74
2023/10/14 11:29:25;;;;;;;0.50;0.50;;;12.60;99.90;;;;;;5026487;28;20040;-74
2023/10/14 11:31:58;;;;;;;0.30;0.30;;;12.70;99.90;;;;;;5028212;28;20838;-74
2023/10/14 11:34:24;;;;;;;0.40;0.40;;;13.00;99.90;;;;;;5039992;28;20482;-74
2023/10/14 11:36:50;;;;;;;0.50;0.50;;;13.20;99.90;;;;;;5037883;28;20041;-74
2023/10/14 11:39:18;;;;;;;0.40;0.40;;;13.40;99.90;;;;;;5037822;28;20067;-73
2023/10/14 11:41:50;;;;;;;;;;;13.60;99.90;;;;;;5049414;28;20393;-74
2023/10/14 11:44:19;;;;;;;0.50;0.50;;;13.60;99.90;;;;;;5043210;28;21006;-74
2023/10/14 11:46:46;;;;;;;0.30;0.30;;;13.70;99.90;;;;;;5028450;28;20040;-74
2023/10/14 11:49:12;;;;;;;0.45;0.45;;;13.70;99.90;;;;;;5042875;28;20375;-74
2023/10/14 11:51:46;;;;;;;0.32;0.32;;;13.60;99.90;;;;;;5042668;28;20470;-74
2023/10/14 11:54:11;;;;;;;0.40;0.40;;;13.50;99.90;;;;;;5030450;28;20067;-74
2023/10/14 11:56:41;;;;;;;0.40;0.40;;;13.40;99.90;;;;;;5046973;28;21152;-74
2023/10/14 11:59:07;;;;;;;0.30;0.30;;;13.20;99.90;;;;;;5042902;28;20043;-74
2023/10/14 12:01:34;;;;;;;0.35;0.35;;;13.10;99.90;;;;;;5041336;28;20056;-74
2023/10/14 12:04:04;;;;;;;0.60;0.60;;;13.00;99.90;;;;;;5020469;28;20138;-74
2023/10/14 12:06:33;;;;;;;0.47;0.47;;;13.00;99.90;;;;;;5042496;28;20040;-74
2023/10/14 12:09:01;;;;;;;0.60;0.60;;;13.00;99.90;;;;;;5047028;28;20580;-74
2023/10/14 12:11:27;;;;;;;0.50;0.50;;;13.00;99.90;;;;;;5020738;28;20048;-74
2023/10/14 12:13:52;;;;;;;0.40;0.40;;;13.00;99.90;;;;;;5042335;28;20044;-74
2023/10/14 12:16:18;;;;;;;0.45;0.45;;;13.10;99.90;;;;;;5042100;28;20719;-74
2023/10/14 12:18:48;;;;;;;0.40;0.40;;;13.30;99.90;;;;;;5029234;28;20047;-74
2023/10/14 12:21:14;;;;;;;0.47;0.47;;;13.50;99.90;;;;;;5040641;28;20560;-74
2023/10/14 12:23:40;;;;;;;0.52;0.52;;;13.60;99.90;;;;;;5044763;28;20032;-74
2023/10/14 12:26:06;;;;;;;0.30;0.30;;;13.70;99.90;;;;;;5057571;28;20610;-74
2023/10/14 12:28:33;;;;;;;0.55;0.55;;;13.80;99.90;;;;;;5061335;28;20143;-74
2023/10/14 12:31:06;;;;;;;0.30;0.30;;;13.80;99.90;;;;;;5067723;28;20051;-74
2023/10/14 12:33:35;;;;;;;0.40;0.40;;;13.90;99.90;;;;;;5045266;28;20066;-74
2023/10/14 12:36:09;;;;;;;0.40;0.40;;;13.90;99.90;;;;;;5059759;28;20059;-74
2023/10/14 12:38:36;;;;;;;0.40;0.40;;;14.00;99.90;;;;;;5055688;28;20115;-74
2023/10/14 12:41:05;;;;;;;0.40;0.40;;;14.00;99.90;;;;;;5061847;28;20055;-74
2023/10/14 12:43:36;;;;;;;0.57;0.57;;;13.90;99.90;;;;;;5038302;28;20040;-74
2023/10/14 12:46:14;;;;;;;0.80;0.80;;;13.80;99.90;;;;;;5046503;28;20067;-74
2023/10/14 12:48:43;;;;;;;0.73;0.73;;;13.80;99.90;;;;;;5052579;28;20582;-74
2023/10/14 12:51:11;;;;;;;0.40;0.40;;;13.80;99.90;;;;;;5062836;28;20408;-73
2023/10/14 12:53:45;;;;;;;;;;;13.90;99.90;;;;;;5037573;28;20040;-74
2023/10/14 12:56:14;;;;;;;0.93;0.93;;;13.90;99.90;;;;;;5065328;28;19920;-74
2023/10/14 12:58:42;;;;;;;0.30;0.30;;;13.90;99.90;;;;;;5042779;28;20070;-74
2023/10/14 13:01:19;;;;;;;0.40;0.40;;;13.90;99.90;;;;;;5040694;28;20117;-74
2023/10/14 13:03:53;;;;;;;0.40;0.40;;;14.00;99.90;;;;;;5046972;28;20417;-74
2023/10/14 13:06:23;;;;;;;0.40;0.40;;;14.00;99.90;;;;;;5036963;28;20445;-73
2023/10/14 13:08:54;;;;;;;0.40;0.40;;;14.00;99.90;;;;;;5040606;28;20170;-74
2023/10/14 13:11:20;;;;;;;0.35;0.35;;;14.00;99.90;;;;;;5024660;28;20549;-73
2023/10/14 13:13:52;;;;;;;0.38;0.38;;;14.00;99.90;;;;;;5041202;28;20059;-73
2023/10/14 13:16:23;;;;;;;0.50;0.50;;;13.90;99.90;;;;;;5019913;28;20055;-74
2023/10/14 13:18:49;;;;;;;0.40;0.40;;;13.90;99.90;;;;;;5036236;28;20710;-74
2023/10/14 13:21:19;;;;;;;0.50;0.50;;;13.90;99.90;;;;;;5028856;28;20249;-74
2023/10/14 13:23:48;;;;;;;0.40;0.40;;;14.00;99.90;;;;;;5043692;28;20050;-74
2023/10/14 13:26:15;;;;;;;0.50;0.50;;;14.00;99.90;;;;;;5022361;28;20119;-74
2023/10/14 13:28:50;;;;;;;0.40;0.40;;;14.00;99.90;;;;;;5039069;28;21071;-74
2023/10/14 13:31:16;;;;;;;0.45;0.45;;;14.00;99.90;;;;;;5043400;28;20050;-73